createdAt,value
2019-01-15T00:00:54.291Z,6.10
2019-01-15T00:06:02.471Z,10.80
2019-01-15T00:11:10.275Z,19.25
2019-01-15T00:16:18.022Z,9.83
2019-01-15T00:21:25.845Z,9.10
2019-01-15T00:26:34.651Z,9.82
2019-01-15T00:31:42.374Z,10.56
2019-01-15T00:36:49.946Z,7.22
2019-01-15T00:41:57.633Z,9.54
2019-01-15T00:47:05.343Z,10.30
2019-01-15T00:52:13.204Z,10.16
2019-01-15T00:57:21.085Z,8.23
2019-01-15T01:02:28.911Z,9.59
2019-01-15T01:07:36.620Z,8.32
2019-01-15T01:12:44.246Z,12.48
2019-01-15T01:17:52.198Z,8.79
2019-01-15T01:23:00.775Z,9.57
2019-01-15T01:28:08.402Z,9.98
2019-01-15T01:33:16.127Z,8.89
2019-01-15T01:38:24.609Z,17.97
2019-01-15T01:43:32.290Z,9.70
2019-01-15T01:48:39.922Z,6.89
2019-01-15T01:53:47.597Z,9.71
2019-01-15T01:58:55.480Z,7.32
2019-01-15T02:04:03.162Z,7.51
2019-01-15T02:09:10.808Z,7.55
2019-01-15T02:14:18.516Z,6.59
2019-01-15T02:19:26.309Z,6.12
2019-01-15T02:24:33.921Z,7.68
2019-01-15T02:29:41.537Z,7.10
2019-01-15T02:34:49.462Z,6.45
2019-01-15T02:39:58.219Z,6.89
2019-01-15T02:45:05.829Z,6.96
2019-01-15T02:50:13.498Z,7.84
2019-01-15T02:55:22.045Z,6.94
2019-01-15T03:00:29.733Z,7.39
2019-01-15T03:05:38.417Z,8.90
2019-01-15T03:10:46.071Z,6.46
2019-01-15T03:15:54.042Z,7.38
2019-01-15T03:21:01.731Z,6.08
2019-01-15T03:26:09.535Z,5.23
2019-01-15T03:31:17.201Z,7.13
2019-01-15T03:36:24.839Z,6.30
2019-01-15T03:41:32.686Z,5.53
2019-01-15T03:46:40.418Z,6.74
2019-01-15T03:51:48.165Z,5.57
2019-01-15T03:56:56.695Z,5.84
2019-01-15T04:02:04.610Z,5.84
2019-01-15T04:07:12.213Z,6.02
2019-01-15T04:12:19.885Z,10.87
2019-01-15T04:17:28.858Z,5.74
2019-01-15T04:22:36.752Z,6.76
2019-01-15T04:27:44.462Z,4.75
2019-01-15T04:32:52.168Z,4.77
2019-01-15T04:37:59.773Z,6.79
2019-01-15T04:43:07.395Z,5.00
2019-01-15T04:48:15.065Z,5.07
2019-01-15T04:53:23.081Z,3.92
2019-01-15T04:58:31.605Z,5.84
2019-01-15T05:03:39.338Z,5.10
2019-01-15T05:08:47.270Z,6.17
2019-01-15T05:13:55.038Z,5.61
2019-01-15T05:19:02.927Z,2.90
2019-01-15T05:24:10.628Z,4.27
2019-01-15T05:29:18.201Z,3.32
2019-01-15T05:34:25.810Z,4.38
2019-01-15T05:39:33.462Z,5.95
2019-01-15T05:44:41.175Z,4.38
2019-01-15T05:49:48.889Z,5.03
2019-01-15T05:54:56.742Z,4.52
2019-01-15T06:00:04.502Z,5.82
2019-01-15T06:05:12.175Z,8.03
2019-01-15T06:10:19.976Z,5.79
2019-01-15T06:15:28.571Z,9.12
2019-01-15T06:20:36.159Z,7.64
2019-01-15T06:25:44.718Z,6.10
2019-01-15T06:30:52.734Z,6.80
2019-01-15T06:36:01.317Z,6.61
2019-01-15T06:41:08.958Z,9.41
2019-01-15T06:46:16.907Z,7.98
2019-01-15T06:51:24.706Z,7.39
2019-01-15T06:56:32.297Z,9.74
2019-01-15T07:01:40.001Z,12.42
2019-01-15T07:06:48.613Z,12.17
2019-01-15T07:11:56.358Z,12.03
2019-01-15T07:17:04.177Z,14.28
2019-01-15T07:22:11.800Z,14.21
2019-01-15T07:27:20.161Z,14.71
2019-01-15T07:32:27.936Z,25.22
2019-01-15T07:37:36.146Z,13.70
2019-01-15T07:42:43.792Z,17.15
2019-01-15T07:47:51.399Z,17.07
2019-01-15T07:52:59.062Z,19.58
2019-01-15T07:58:07.722Z,18.78
2019-01-15T08:03:15.425Z,19.54
2019-01-15T08:08:23.143Z,19.81
2019-01-15T08:13:30.797Z,21.73
2019-01-15T08:18:38.810Z,24.57
2019-01-15T08:23:46.569Z,19.43
2019-01-15T08:28:54.331Z,19.64
2019-01-15T08:34:01.978Z,20.25
2019-01-15T08:39:09.662Z,21.04
2019-01-15T08:44:19.319Z,24.02
2019-01-15T08:49:25.850Z,19.48
2019-01-15T08:54:33.477Z,24.32
2019-01-15T08:59:41.329Z,21.62
2019-01-15T09:04:49.081Z,25.17
2019-01-15T09:09:56.917Z,24.62
2019-01-15T09:15:04.526Z,24.90
2019-01-15T09:20:12.321Z,24.19
2019-01-15T09:25:19.926Z,22.00
2019-01-15T09:30:27.649Z,23.98
2019-01-15T09:35:35.422Z,23.29
2019-01-15T09:40:43.347Z,27.86
2019-01-15T09:45:50.988Z,26.99
2019-01-15T09:50:58.760Z,23.70
2019-01-15T09:56:06.509Z,21.45
2019-01-15T10:01:14.234Z,26.94
2019-01-15T10:06:21.878Z,26.99
2019-01-15T10:11:29.822Z,23.41
2019-01-15T10:16:37.431Z,24.30
2019-01-15T10:21:45.221Z,26.06
2019-01-15T10:26:52.903Z,25.79
2019-01-15T10:32:00.666Z,23.48
2019-01-15T10:37:08.501Z,22.58
2019-01-15T10:42:16.370Z,23.30
2019-01-15T10:47:24.018Z,22.20
2019-01-15T10:52:31.698Z,26.89
2019-01-15T10:57:39.386Z,25.95
2019-01-15T11:02:47.902Z,21.50
2019-01-15T11:07:55.546Z,24.11
2019-01-15T11:13:03.394Z,24.35
2019-01-15T11:18:11.648Z,27.22
2019-01-15T11:23:19.344Z,21.84
2019-01-15T11:28:27.305Z,18.36
2019-01-15T11:33:35.005Z,17.79
2019-01-15T11:38:42.841Z,18.18
2019-01-15T11:43:50.482Z,16.12
2019-01-15T11:48:58.566Z,18.19
2019-01-15T11:54:06.246Z,19.40
2019-01-15T11:59:13.985Z,16.79
2019-01-15T12:04:21.886Z,14.04
2019-01-15T12:09:29.676Z,14.51
2019-01-15T12:14:37.341Z,16.91
2019-01-15T12:19:45.098Z,12.80
2019-01-15T12:24:52.897Z,14.09
2019-01-15T12:30:00.543Z,16.65
2019-01-15T12:35:08.282Z,14.56
2019-01-15T12:40:17.017Z,14.81
2019-01-15T12:45:23.557Z,14.25
2019-01-15T12:50:31.350Z,11.37
2019-01-15T12:55:39.939Z,10.80
2019-01-15T13:00:48.370Z,11.71
2019-01-15T13:05:56.082Z,11.61
2019-01-15T13:11:03.849Z,12.16
2019-01-15T13:16:11.613Z,13.06
2019-01-15T13:21:19.439Z,8.83
2019-01-15T13:26:27.115Z,10.87
2019-01-15T13:31:34.770Z,8.52
2019-01-15T13:36:42.480Z,7.69
2019-01-15T13:41:50.373Z,10.05
2019-01-15T13:46:57.997Z,8.06
2019-01-15T13:52:05.725Z,9.55
2019-01-15T13:57:13.418Z,8.12
2019-01-15T14:02:21.163Z,8.31
2019-01-15T14:07:28.806Z,7.74
2019-01-15T14:12:36.523Z,8.82
2019-01-15T14:17:44.286Z,9.43
2019-01-15T14:22:51.903Z,7.96
2019-01-15T14:27:59.694Z,7.14
2019-01-15T14:33:07.375Z,7.69
2019-01-15T14:38:15.045Z,9.90
2019-01-15T14:43:22.731Z,8.61
2019-01-15T14:48:30.418Z,9.67
2019-01-15T14:53:39.138Z,9.41
2019-01-15T14:58:47.050Z,9.10
2019-01-15T15:03:54.806Z,9.15
2019-01-15T15:09:02.617Z,11.16
2019-01-15T15:14:10.458Z,11.84
2019-01-15T15:19:18.214Z,10.11
2019-01-15T15:24:25.790Z,10.11
2019-01-15T15:29:33.438Z,13.95
2019-01-15T15:34:41.141Z,10.35
2019-01-15T15:39:48.882Z,12.43
2019-01-15T15:44:56.673Z,10.73
2019-01-15T15:50:04.446Z,9.01
2019-01-15T15:55:13.410Z,9.88
2019-01-15T16:00:21.221Z,31.92
2019-01-15T16:05:28.959Z,13.62
2019-01-15T16:10:36.718Z,16.59
2019-01-15T16:15:44.426Z,12.51
2019-01-15T16:20:52.258Z,10.15
2019-01-15T16:26:00.249Z,10.59
2019-01-15T16:31:07.966Z,12.32
2019-01-15T16:36:15.628Z,13.04
2019-01-15T16:41:23.366Z,18.88
2019-01-15T16:46:31.099Z,14.93
2019-01-15T16:51:38.930Z,12.82
2019-01-15T16:56:46.670Z,18.22
2019-01-15T17:01:54.409Z,12.45
2019-01-15T17:07:02.050Z,7.69
2019-01-15T17:12:09.904Z,6.50
2019-01-15T17:17:17.542Z,8.02
2019-01-15T17:22:25.318Z,7.59
2019-01-15T17:27:33.063Z,7.16
2019-01-15T17:32:40.878Z,6.89
2019-01-15T17:37:48.514Z,11.68
2019-01-15T17:42:56.105Z,6.65
2019-01-15T17:48:03.709Z,8.96
2019-01-15T17:53:11.380Z,8.22
2019-01-15T17:58:19.106Z,8.08
2019-01-15T18:03:26.929Z,8.14
2019-01-15T18:08:34.695Z,7.24
2019-01-15T18:13:42.445Z,6.89
2019-01-15T18:18:50.269Z,6.42
2019-01-15T18:23:58.131Z,8.51
2019-01-15T18:29:06.758Z,7.59
2019-01-15T18:34:14.666Z,7.71
2019-01-15T18:39:22.286Z,7.07
2019-01-15T18:44:30.102Z,7.59
2019-01-15T18:49:38.683Z,8.06
2019-01-15T18:54:46.470Z,9.14
2019-01-15T18:59:54.116Z,10.49
2019-01-15T19:05:02.755Z,8.73
2019-01-15T19:10:10.520Z,9.29
2019-01-15T19:15:18.302Z,11.83
2019-01-15T19:20:26.006Z,13.46
2019-01-15T19:25:33.790Z,16.25
2019-01-15T19:30:41.607Z,16.28
2019-01-15T19:35:49.328Z,15.57
2019-01-15T19:40:57.383Z,17.67
2019-01-15T19:46:05.199Z,17.02
2019-01-15T19:51:12.873Z,17.55
2019-01-15T19:56:20.594Z,20.49
2019-01-15T20:01:28.252Z,17.13
2019-01-15T20:06:36.073Z,21.65
2019-01-15T20:11:43.787Z,21.26
2019-01-15T20:16:51.442Z,21.71
2019-01-15T20:21:59.513Z,20.14
2019-01-15T20:27:07.274Z,19.38
2019-01-15T20:32:15.354Z,17.07
2019-01-15T20:37:23.426Z,15.72
2019-01-15T20:42:31.107Z,17.89
2019-01-15T20:47:39.086Z,17.50
2019-01-15T20:52:46.813Z,15.88
2019-01-15T20:57:54.830Z,14.89
2019-01-15T21:03:02.410Z,17.26
2019-01-15T21:08:10.210Z,15.65
2019-01-15T21:13:17.858Z,15.07
2019-01-15T21:18:25.454Z,18.55
2019-01-15T21:23:33.087Z,17.31
2019-01-15T21:28:40.806Z,14.81
2019-01-15T21:33:48.525Z,15.70
2019-01-15T21:38:56.329Z,17.71
2019-01-15T21:44:04.042Z,18.48
2019-01-15T21:49:11.806Z,16.27
2019-01-15T21:54:19.442Z,18.98
2019-01-15T21:59:27.098Z,15.61
2019-01-15T22:04:34.862Z,17.31
2019-01-15T22:09:42.629Z,16.92
2019-01-15T22:14:51.127Z,16.56
2019-01-15T22:19:58.837Z,17.00
2019-01-15T22:25:06.837Z,16.82
2019-01-15T22:30:14.614Z,16.64
2019-01-15T22:35:23.222Z,15.57
2019-01-15T22:40:31.039Z,21.36
2019-01-15T22:45:38.761Z,18.54
2019-01-15T22:50:46.569Z,16.84
2019-01-15T22:55:54.385Z,16.48
2019-01-15T23:01:02.954Z,21.12
2019-01-15T23:06:10.656Z,16.47
2019-01-15T23:11:18.467Z,18.46
2019-01-15T23:16:27.247Z,18.77
2019-01-15T23:21:34.894Z,16.53
2019-01-15T23:26:42.626Z,17.79
2019-01-15T23:31:50.489Z,15.84
2019-01-15T23:36:58.190Z,18.12
2019-01-15T23:42:06.018Z,17.83
2019-01-15T23:47:13.623Z,19.25
2019-01-15T23:52:21.338Z,17.25
2019-01-15T23:57:29.093Z,16.83
